Time;durP1;ratioP1;P1;durP2;ratioP2;P2;SDS_P1;SDS_P2;PMS_P1;PMS_P2;Temp;Humidity;BMP_temperature;BMP_pressure;BME280_temperature;BME280_humidity;BME280_pressure;Samples;Min_cycle;Max_cycle;Signal;HPM_P1;HPM_P2
2023/09/19 00:00:41;;;;;;;20.23;11.50;;;14.30;99.90;;;;;;4953743;29;20287;-83
2023/09/19 00:03:11;;;;;;;21.33;12.75;;;14.30;99.90;;;;;;4953829;29;20191;-83
2023/09/19 00:05:44;;;;;;;18.00;11.52;;;14.30;99.90;;;;;;4953576;29;20595;-84
2023/09/19 00:08:16;;;;;;;19.20;11.48;;;14.30;99.90;;;;;;4953750;29;20221;-85
2023/09/19 00:10:44;;;;;;;19.58;12.63;;;14.30;99.90;;;;;;4953472;29;20187;-84
2023/09/19 00:13:14;;;;;;;22.30;13.00;;;14.30;99.90;;;;;;4953363;29;20284;-83
2023/09/19 00:15:48;;;;;;;20.77;11.50;;;14.30;99.90;;;;;;4935940;29;20196;-84
2023/09/19 00:18:21;;;;;;;18.17;11.23;;;14.30;99.90;;;;;;4953500;29;20196;-85
2023/09/19 00:20:51;;;;;;;20.10;12.02;;;14.40;99.90;;;;;;4953086;29;20193;-83
2023/09/19 00:23:20;;;;;;;17.25;10.63;;;14.40;99.90;;;;;;4953362;29;20185;-83
2023/09/19 00:25:48;;;;;;;18.55;11.30;;;14.40;99.90;;;;;;4953513;29;20280;-84
2023/09/19 00:28:16;;;;;;;20.42;13.13;;;14.40;99.90;;;;;;4953306;29;20248;-83
2023/09/19 00:30:45;;;;;;;18.58;11.70;;;14.40;99.90;;;;;;4953084;29;20189;-83
2023/09/19 00:33:16;;;;;;;17.05;10.90;;;14.40;99.90;;;;;;4953207;29;20956;-84
2023/09/19 00:35:48;;;;;;;16.98;10.25;;;14.40;99.90;;;;;;4935693;29;20189;-84
2023/09/19 00:38:18;;;;;;;19.05;11.82;;;14.40;99.90;;;;;;4953001;29;20195;-84
2023/09/19 00:40:46;;;;;;;20.60;11.55;;;14.50;99.90;;;;;;4926980;29;20294;-85
2023/09/19 00:43:13;;;;;;;17.02;10.38;;;14.50;99.90;;;;;;4914901;29;20574;-83
2023/09/19 00:45:45;;;;;;;21.67;12.40;;;14.50;99.90;;;;;;4914916;29;20553;-85
2023/09/19 00:48:13;;;;;;;20.80;11.90;;;14.50;99.90;;;;;;4913726;29;20635;-84
2023/09/19 00:50:47;;;;;;;20.63;13.00;;;14.50;99.90;;;;;;4898006;29;20198;-84
2023/09/19 00:53:20;;;;;;;18.33;12.00;;;14.50;99.90;;;;;;4914826;29;20266;-84
2023/09/19 00:55:50;;;;;;;20.63;13.07;;;14.50;99.90;;;;;;4913239;29;20725;-83
2023/09/19 00:58:19;;;;;;;19.67;13.52;;;14.50;99.90;;;;;;4914486;29;20197;-83
2023/09/19 01:00:49;;;;;;;21.00;12.18;;;14.50;99.90;;;;;;4912864;29;20228;-84
2023/09/19 01:03:18;;;;;;;20.10;13.02;;;14.50;99.90;;;;;;4914501;29;20710;-84
2023/09/19 01:05:46;;;;;;;21.33;13.32;;;14.50;99.90;;;;;;4914409;29;20665;-84
2023/09/19 01:08:13;;;;;;;19.90;13.02;;;14.50;99.90;;;;;;4913039;29;20193;-85
2023/09/19 01:10:59;;;;;;;19.52;12.60;;;14.50;99.90;;;;;;4914308;29;20190;-84
2023/09/19 01:13:40;;;;;;;21.05;13.63;;;14.50;99.90;;;;;;4914486;29;20190;-83
2023/09/19 01:16:39;;;;;;;21.30;14.23;;;14.50;99.90;;;;;;4914314;29;20245;-84
2023/09/19 01:19:34;;;;;;;19.52;12.75;;;14.50;99.90;;;;;;4914146;29;20181;-84
2023/09/19 01:22:35;;;;;;;23.77;13.60;;;14.50;99.90;;;;;;4913895;29;20174;-85
2023/09/19 01:25:12;;;;;;;18.15;12.45;;;14.50;99.90;;;;;;4912637;29;20241;-84
2023/09/19 01:28:06;;;;;;;21.85;14.00;;;14.50;99.90;;;;;;4913941;29;20216;-83
2023/09/19 01:30:39;;;;;;;19.25;12.60;;;14.60;99.90;;;;;;4914031;29;20174;-84
2023/09/19 01:33:08;;;;;;;19.55;13.25;;;14.50;99.90;;;;;;4914154;29;20190;-83
2023/09/19 01:35:38;;;;;;;23.20;14.00;;;14.60;99.90;;;;;;4897115;29;20686;-84
2023/09/19 01:38:09;;;;;;;20.45;13.43;;;14.50;99.90;;;;;;4914151;29;20257;-84
2023/09/19 01:40:42;;;;;;;21.75;13.15;;;14.60;99.90;;;;;;4912327;29;20234;-84
2023/09/19 01:43:27;;;;;;;23.55;14.27;;;14.60;99.90;;;;;;4912349;29;20718;-84
2023/09/19 01:46:13;;;;;;;20.58;13.90;;;14.60;99.90;;;;;;4913832;29;20281;-84
2023/09/19 01:48:49;;;;;;;22.38;15.05;;;14.60;99.90;;;;;;4913703;29;20178;-85
2023/09/19 01:51:37;;;;;;;22.60;15.15;;;14.60;99.90;;;;;;4913719;29;20225;-83
2023/09/19 01:54:11;;;;;;;22.00;14.38;;;14.60;99.90;;;;;;4913762;29;20649;-84
2023/09/19 01:56:50;;;;;;;22.95;14.88;;;14.70;99.90;;;;;;4913865;29;20645;-84
2023/09/19 01:59:24;;;;;;;21.52;12.85;;;14.70;99.90;;;;;;4912662;29;20198;-84
2023/09/19 02:01:53;;;;;;;23.08;14.45;;;14.60;99.90;;;;;;4912220;29;20691;-84
2023/09/19 02:04:20;;;;;;;21.13;14.18;;;14.70;99.90;;;;;;4913661;29;20679;-84
2023/09/19 02:06:48;;;;;;;27.05;16.88;;;14.70;99.90;;;;;;4913489;29;20846;-83
2023/09/19 02:09:16;;;;;;;22.42;14.88;;;14.70;99.90;;;;;;4913263;29;20205;-85
2023/09/19 02:11:44;;;;;;;22.67;14.05;;;14.70;99.90;;;;;;4913418;29;20193;-84
2023/09/19 02:14:12;;;;;;;20.13;13.68;;;14.70;99.90;;;;;;4911853;29;20225;-83
2023/09/19 02:16:40;;;;;;;21.70;14.50;;;14.70;99.90;;;;;;4913414;29;20193;-83
2023/09/19 02:19:07;;;;;;;19.85;13.38;;;14.70;99.90;;;;;;4913034;29;20305;-83
2023/09/19 02:21:35;;;;;;;21.63;15.25;;;14.70;99.90;;;;;;4911385;29;20582;-83
2023/09/19 02:24:03;;;;;;;24.58;14.18;;;14.70;99.90;;;;;;4912915;29;20182;-84
2023/09/19 02:26:30;;;;;;;20.00;13.60;;;14.70;99.90;;;;;;4913005;29;20189;-84
2023/09/19 02:28:59;;;;;;;22.67;15.32;;;14.70;99.90;;;;;;4912978;29;20801;-85
2023/09/19 02:31:29;;;;;;;22.33;15.00;;;14.70;99.90;;;;;;4911571;29;20198;-83
2023/09/19 02:33:57;;;;;;;21.90;14.25;;;14.70;99.90;;;;;;4911791;29;20198;-84
2023/09/19 02:36:24;;;;;;;21.63;14.23;;;14.70;99.90;;;;;;4896312;29;20288;-84
2023/09/19 02:38:52;;;;;;;23.65;14.65;;;14.80;99.90;;;;;;4913122;29;20190;-83
2023/09/19 02:41:19;;;;;;;22.38;14.27;;;14.80;99.90;;;;;;4932348;29;20579;-84
2023/09/19 02:43:47;;;;;;;21.33;13.98;;;14.80;99.90;;;;;;4950910;29;20268;-84
2023/09/19 02:46:14;;;;;;;22.10;14.63;;;14.80;99.90;;;;;;4950968;29;20189;-84
2023/09/19 02:48:42;;;;;;;23.08;14.95;;;14.70;99.90;;;;;;4950899;29;20196;-84
2023/09/19 02:51:10;;;;;;;20.45;13.73;;;14.70;99.90;;;;;;4950962;29;20271;-83
2023/09/19 02:53:38;;;;;;;22.67;14.88;;;14.80;99.90;;;;;;4950956;29;20271;-84
2023/09/19 02:56:07;;;;;;;22.95;15.80;;;14.70;99.90;;;;;;4933755;29;20216;-84
2023/09/19 02:58:35;;;;;;;25.52;15.05;;;14.70;99.90;;;;;;4933581;29;20196;-83
2023/09/19 03:01:12;;;;;;;22.88;14.52;;;14.70;99.90;;;;;;4933471;29;20204;-84
2023/09/19 03:03:40;;;;;;;21.90;14.00;;;14.70;99.90;;;;;;4950733;29;20165;-83
2023/09/19 03:06:08;;;;;;;19.92;12.70;;;14.70;99.90;;;;;;4933317;29;20184;-84
2023/09/19 03:08:39;;;;;;;18.23;12.50;;;14.70;99.90;;;;;;4933324;29;20212;-83
2023/09/19 03:11:09;;;;;;;22.30;13.32;;;14.70;99.90;;;;;;4933575;29;20204;-83
2023/09/19 03:13:38;;;;;;;25.33;16.88;;;14.70;99.90;;;;;;4933394;29;20195;-85
2023/09/19 03:16:06;;;;;;;22.17;14.63;;;14.70;99.90;;;;;;4933610;29;20216;-84
2023/09/19 03:18:35;;;;;;;20.35;14.07;;;14.70;99.90;;;;;;4917686;29;20565;-83
2023/09/19 03:21:03;;;;;;;29.10;16.02;;;14.80;99.90;;;;;;4933930;29;20271;-83
2023/09/19 03:23:31;;;;;;;22.20;14.13;;;14.70;99.90;;;;;;4954386;29;20189;-83
2023/09/19 03:25:59;;;;;;;23.00;14.98;;;14.80;99.90;;;;;;4936993;29;20203;-84
2023/09/19 03:28:27;;;;;;;22.98;14.65;;;14.80;99.90;;;;;;4936771;29;20203;-83
2023/09/19 03:31:07;;;;;;;21.50;15.23;;;14.80;99.90;;;;;;4954256;29;20173;-84
2023/09/19 03:33:37;;;;;;;22.80;15.00;;;14.70;99.90;;;;;;4936831;29;20247;-84
2023/09/19 03:36:05;;;;;;;22.45;15.18;;;14.80;99.90;;;;;;4954476;29;20185;-83
2023/09/19 03:38:36;;;;;;;20.40;13.93;;;14.80;99.90;;;;;;4954145;29;20271;-84
2023/09/19 03:41:04;;;;;;;19.10;12.88;;;14.70;99.90;;;;;;4936500;29;20240;-83
2023/09/19 03:43:34;;;;;;;22.88;15.77;;;14.70;99.90;;;;;;4936529;29;20185;-83
2023/09/19 03:46:04;;;;;;;20.77;14.57;;;14.80;99.90;;;;;;4936517;29;20195;-83
2023/09/19 03:48:33;;;;;;;21.77;14.55;;;14.70;99.90;;;;;;4953997;29;20652;-83
2023/09/19 03:51:02;;;;;;;21.40;14.27;;;14.80;99.90;;;;;;4936495;29;20204;-83
2023/09/19 03:53:30;;;;;;;21.80;13.52;;;14.80;99.90;;;;;;4953732;29;20189;-84
2023/09/19 03:55:59;;;;;;;23.88;15.85;;;14.80;99.90;;;;;;4953876;29;20619;-84
2023/09/19 03:58:30;;;;;;;23.42;14.63;;;14.80;99.90;;;;;;4936654;29;20192;-83
2023/09/19 04:00:58;;;;;;;22.92;14.45;;;14.80;99.90;;;;;;4953726;29;20263;-83
2023/09/19 04:03:34;;;;;;;25.52;17.70;;;14.80;99.90;;;;;;4936174;29;20759;-84
2023/09/19 04:06:03;;;;;;;24.23;15.90;;;14.80;99.90;;;;;;4936215;29;20207;-85
2023/09/19 04:08:30;;;;;;;25.90;15.52;;;14.80;99.90;;;;;;4953408;29;20216;-83
2023/09/19 04:10:58;;;;;;;22.15;13.30;;;14.90;99.90;;;;;;4953389;29;20191;-84
2023/09/19 04:13:26;;;;;;;23.85;15.65;;;14.80;99.90;;;;;;4936084;29;20216;-84
2023/09/19 04:15:54;;;;;;;22.88;15.20;;;14.80;99.90;;;;;;4953469;29;20240;-83
2023/09/19 04:18:23;;;;;;;19.30;13.23;;;14.90;99.90;;;;;;4936440;29;20196;-84
2023/09/19 04:20:51;;;;;;;21.80;14.60;;;14.90;99.90;;;;;;4953461;29;20211;-84
2023/09/19 04:23:20;;;;;;;22.55;14.98;;;14.90;99.90;;;;;;4936106;29;20193;-84
2023/09/19 04:25:48;;;;;;;24.20;15.88;;;14.90;99.90;;;;;;4953277;29;20192;-83
2023/09/19 04:28:16;;;;;;;19.83;13.25;;;14.90;99.90;;;;;;4935729;29;20252;-84
2023/09/19 04:30:44;;;;;;;22.35;15.48;;;14.90;99.90;;;;;;4953035;29;20192;-83
2023/09/19 04:33:14;;;;;;;18.80;13.25;;;15.00;99.90;;;;;;4952608;28;20271;-83
2023/09/19 04:35:44;;;;;;;22.00;14.05;;;15.00;99.90;;;;;;4953161;29;20652;-84
2023/09/19 04:38:12;;;;;;;22.70;13.13;;;15.00;99.90;;;;;;4953032;29;20181;-84
2023/09/19 04:40:39;;;;;;;20.38;15.43;;;15.00;99.90;;;;;;4952992;29;20237;-84
2023/09/19 04:43:07;;;;;;;21.27;13.93;;;15.00;99.90;;;;;;4953310;29;20185;-84
2023/09/19 04:45:35;;;;;;;21.92;15.00;;;15.00;99.90;;;;;;4953220;29;20313;-84
2023/09/19 04:48:03;;;;;;;20.55;14.57;;;15.00;99.90;;;;;;4935554;29;20204;-85
2023/09/19 04:50:31;;;;;;;22.83;14.82;;;15.00;99.90;;;;;;4952519;29;20185;-84
2023/09/19 04:52:58;;;;;;;24.52;14.90;;;15.00;99.90;;;;;;4952724;29;20193;-84
2023/09/19 04:55:27;;;;;;;22.67;15.45;;;15.00;99.90;;;;;;4952554;29;20212;-84
2023/09/19 04:57:55;;;;;;;21.75;15.32;;;15.00;99.90;;;;;;4952734;29;20192;-83
2023/09/19 05:00:24;;;;;;;19.90;13.77;;;15.10;99.90;;;;;;4952644;29;20819;-83
2023/09/19 05:02:52;;;;;;;23.15;15.52;;;15.10;99.90;;;;;;4952660;29;20215;-84
2023/09/19 05:05:22;;;;;;;19.73;13.10;;;15.00;99.90;;;;;;4952804;29;20565;-84
2023/09/19 05:07:51;;;;;;;20.25;13.50;;;15.00;99.90;;;;;;4952695;29;20209;-83
2023/09/19 05:10:19;;;;;;;23.00;15.25;;;15.00;99.90;;;;;;4952530;29;20195;-84
2023/09/19 05:12:48;;;;;;;20.30;14.43;;;15.00;99.90;;;;;;4935289;29;20185;-84
2023/09/19 05:15:16;;;;;;;20.70;14.63;;;15.00;99.90;;;;;;4952354;29;20740;-84
2023/09/19 05:17:51;;;;;;;22.98;14.77;;;15.00;99.90;;;;;;4952232;29;20199;-84
2023/09/19 05:20:29;;;;;;;21.25;14.85;;;15.10;99.90;;;;;;4952182;29;20250;-84
2023/09/19 05:23:07;;;;;;;21.48;14.48;;;15.10;99.90;;;;;;4952370;29;20165;-84
2023/09/19 05:25:39;;;;;;;22.55;15.48;;;15.10;99.90;;;;;;4952150;29;20179;-84
2023/09/19 05:28:08;;;;;;;20.23;14.32;;;15.10;99.90;;;;;;4952174;29;20224;-84
2023/09/19 05:30:38;;;;;;;24.63;17.73;;;15.10;99.90;;;;;;4952150;29;20204;-85
2023/09/19 05:33:06;;;;;;;22.73;15.63;;;15.10;99.90;;;;;;4934878;29;20196;-83
2023/09/19 05:35:34;;;;;;;20.75;14.65;;;15.20;99.90;;;;;;4951986;29;20576;-84
2023/09/19 05:38:01;;;;;;;25.50;14.90;;;15.20;99.90;;;;;;4951969;29;20790;-84
2023/09/19 05:40:29;;;;;;;24.23;15.93;;;15.20;99.90;;;;;;4951962;29;20930;-84
2023/09/19 05:42:57;;;;;;;23.92;16.67;;;15.20;99.90;;;;;;4951703;28;20169;-84
2023/09/19 05:45:25;;;;;;;25.33;15.63;;;15.20;99.90;;;;;;4951326;29;20557;-83
2023/09/19 05:48:01;;;;;;;22.52;15.23;;;15.30;99.90;;;;;;4951713;29;20300;-85
2023/09/19 05:50:28;;;;;;;23.25;16.23;;;15.30;99.90;;;;;;4951724;29;20177;-84
2023/09/19 05:52:56;;;;;;;26.63;16.25;;;15.40;99.90;;;;;;4951690;29;20185;-83
2023/09/19 05:55:27;;;;;;;23.02;15.70;;;15.40;99.90;;;;;;4934679;29;20193;-84
2023/09/19 05:57:54;;;;;;;24.25;16.15;;;15.40;99.90;;;;;;4951878;29;20177;-84
2023/09/19 06:00:23;;;;;;;22.80;16.25;;;15.40;99.90;;;;;;4951610;29;20727;-84
2023/09/19 06:02:55;;;;;;;24.45;16.08;;;15.50;99.90;;;;;;4951619;29;20223;-85
2023/09/19 06:05:27;;;;;;;24.73;16.85;;;15.50;99.90;;;;;;4951754;29;20181;-85
2023/09/19 06:07:55;;;;;;;22.20;15.23;;;15.50;99.90;;;;;;4951733;29;20197;-85
2023/09/19 06:10:23;;;;;;;22.65;14.32;;;15.50;99.90;;;;;;4951854;29;20188;-84
2023/09/19 06:12:51;;;;;;;24.35;14.68;;;15.60;99.90;;;;;;4951658;29;20266;-84
2023/09/19 06:15:18;;;;;;;22.75;15.35;;;15.60;99.90;;;;;;4951994;29;20188;-85
2023/09/19 06:17:49;;;;;;;25.70;16.77;;;15.60;99.90;;;;;;4951718;29;20601;-84
2023/09/19 06:20:17;;;;;;;24.02;16.55;;;15.60;99.90;;;;;;4951430;29;20199;-84
2023/09/19 06:22:45;;;;;;;25.83;16.15;;;15.60;99.90;;;;;;4951138;29;20683;-84
2023/09/19 06:25:19;;;;;;;23.98;15.30;;;15.60;99.90;;;;;;4951345;29;20240;-85
2023/09/19 06:27:53;;;;;;;24.17;16.60;;;15.70;99.90;;;;;;4951010;29;20173;-84
2023/09/19 06:30:23;;;;;;;21.60;14.40;;;15.70;99.90;;;;;;4951155;29;20252;-84
2023/09/19 06:32:57;;;;;;;27.08;16.67;;;15.70;99.90;;;;;;4933424;29;20188;-84
2023/09/19 06:35:26;;;;;;;21.33;15.48;;;15.80;99.90;;;;;;4933748;29;20197;-84
2023/09/19 06:37:54;;;;;;;22.23;15.90;;;15.80;99.90;;;;;;4951031;29;20271;-85
2023/09/19 06:40:21;;;;;;;24.52;15.38;;;15.80;99.90;;;;;;4950794;29;20216;-84
2023/09/19 06:42:53;;;;;;;22.23;14.82;;;15.90;99.90;;;;;;4951096;29;20544;-84
2023/09/19 06:45:21;;;;;;;20.95;14.68;;;16.00;99.90;;;;;;4951201;29;20508;-85
2023/09/19 06:47:51;;;;;;;26.00;15.90;;;16.00;99.90;;;;;;4951027;29;20287;-84
2023/09/19 06:50:22;;;;;;;23.98;16.02;;;16.10;99.90;;;;;;4950989;29;20188;-84
2023/09/19 06:52:53;;;;;;;24.83;15.60;;;16.10;99.90;;;;;;4950812;29;20516;-84
2023/09/19 06:55:24;;;;;;;25.10;15.30;;;16.20;99.90;;;;;;4952298;28;20172;-84
2023/09/19 06:57:54;;;;;;;21.85;15.38;;;16.30;99.90;;;;;;4954828;29;20181;-83
2023/09/19 07:00:22;;;;;;;23.42;14.85;;;16.40;99.90;;;;;;4954820;29;20200;-84
2023/09/19 07:03:00;;;;;;;23.65;14.75;;;16.40;99.90;;;;;;4954672;29;20212;-84
2023/09/19 07:05:29;;;;;;;22.63;15.32;;;16.50;99.90;;;;;;4954644;29;20183;-84
2023/09/19 07:08:00;;;;;;;21.92;14.38;;;16.50;99.90;;;;;;4954929;29;20184;-84
2023/09/19 07:10:29;;;;;;;19.67;13.23;;;16.50;99.90;;;;;;4954917;29;20180;-84
2023/09/19 07:13:00;;;;;;;20.95;14.00;;;16.50;99.90;;;;;;4954822;29;20188;-85
2023/09/19 07:15:29;;;;;;;21.65;14.10;;;16.50;99.90;;;;;;4954509;29;20184;-84
2023/09/19 07:17:57;;;;;;;21.85;15.07;;;16.50;99.90;;;;;;4954314;29;20663;-84
2023/09/19 07:20:31;;;;;;;20.25;14.07;;;16.50;99.90;;;;;;4954390;29;20195;-84
2023/09/19 07:22:59;;;;;;;22.15;13.45;;;16.60;99.90;;;;;;4937065;29;20267;-84
2023/09/19 07:25:28;;;;;;;20.88;14.43;;;16.70;99.90;;;;;;4954251;29;20205;-84
2023/09/19 07:28:02;;;;;;;21.90;13.77;;;16.70;99.90;;;;;;4954416;29;20267;-84
2023/09/19 07:30:30;;;;;;;24.08;14.73;;;16.70;99.90;;;;;;4954553;29;20184;-84
2023/09/19 07:32:57;;;;;;;17.52;11.68;;;16.70;99.90;;;;;;4954231;29;20240;-84
2023/09/19 07:35:25;;;;;;;23.67;15.25;;;16.70;99.90;;;;;;4954203;29;20185;-84
2023/09/19 07:37:53;;;;;;;23.00;14.88;;;16.80;99.90;;;;;;4954114;29;20292;-85
2023/09/19 07:40:20;;;;;;;22.60;14.65;;;16.80;99.90;;;;;;4953975;29;20588;-84
2023/09/19 07:42:50;;;;;;;20.15;14.65;;;16.80;99.90;;;;;;4953938;29;20204;-83
2023/09/19 07:45:18;;;;;;;19.65;13.95;;;16.80;99.90;;;;;;4953931;29;20354;-84
2023/09/19 07:47:47;;;;;;;19.73;13.85;;;16.90;99.90;;;;;;4954222;29;20599;-84
2023/09/19 07:50:17;;;;;;;20.67;14.18;;;17.00;99.90;;;;;;4954633;29;20263;-84
2023/09/19 07:52:45;;;;;;;22.40;14.18;;;17.00;99.90;;;;;;4936509;29;20189;-84
2023/09/19 07:55:16;;;;;;;18.33;13.35;;;17.00;99.90;;;;;;4953795;29;20188;-84
2023/09/19 07:57:44;;;;;;;20.13;14.65;;;17.20;99.90;;;;;;4953748;29;20180;-84
2023/09/19 08:00:12;;;;;;;22.40;13.80;;;17.20;99.90;;;;;;4953613;29;20673;-83
2023/09/19 08:02:41;;;;;;;20.85;14.30;;;17.10;99.90;;;;;;4953620;29;20703;-85
2023/09/19 08:05:15;;;;;;;19.23;13.18;;;17.20;99.90;;;;;;4953768;29;20212;-84
2023/09/19 08:07:52;;;;;;;19.25;13.98;;;17.20;99.90;;;;;;4953147;28;20176;-84
2023/09/19 08:10:20;;;;;;;22.20;14.38;;;17.20;99.90;;;;;;4953725;29;20928;-85
2023/09/19 08:12:49;;;;;;;19.48;13.88;;;17.30;99.90;;;;;;4936445;29;20660;-84
2023/09/19 08:15:20;;;;;;;21.45;15.02;;;17.40;99.90;;;;;;4936006;29;20628;-84
2023/09/19 08:17:49;;;;;;;20.30;14.40;;;17.50;99.90;;;;;;4953419;29;20184;-84
2023/09/19 08:20:18;;;;;;;24.80;14.98;;;17.60;99.90;;;;;;4935940;29;20315;-85
2023/09/19 08:22:54;;;;;;;21.60;13.43;;;17.60;99.90;;;;;;4953189;29;20215;-85
2023/09/19 08:25:23;;;;;;;17.27;12.75;;;17.70;99.90;;;;;;4936298;29;20169;-85
2023/09/19 08:27:51;;;;;;;18.17;14.82;;;17.70;99.90;;;;;;4953055;29;20196;-84
2023/09/19 08:30:24;;;;;;;20.30;13.65;;;17.90;99.90;;;;;;4953582;29;21257;-85
2023/09/19 08:32:58;;;;;;;19.70;12.73;;;18.10;99.90;;;;;;4953189;29;20187;-85
2023/09/19 08:35:29;;;;;;;18.15;12.55;;;18.20;99.90;;;;;;4953105;29;20594;-85
2023/09/19 08:37:57;;;;;;;16.98;11.63;;;18.10;99.90;;;;;;4935662;29;20219;-84
2023/09/19 08:40:27;;;;;;;19.63;11.88;;;18.20;99.90;;;;;;4952824;29;20703;-83
2023/09/19 08:42:56;;;;;;;19.77;13.52;;;18.30;99.90;;;;;;4952914;29;20205;-86
2023/09/19 08:45:27;;;;;;;16.80;12.25;;;18.50;99.90;;;;;;4953053;29;20937;-85
2023/09/19 08:48:20;;;;;;;17.98;12.13;;;18.60;99.90;;;;;;4935718;29;20188;-85
2023/09/19 08:51:14;;;;;;;19.17;12.65;;;18.70;99.90;;;;;;4935379;29;20193;-85
2023/09/19 08:53:59;;;;;;;16.98;14.57;;;19.00;99.90;;;;;;4935249;29;20196;-83
2023/09/19 08:56:29;;;;;;;16.83;11.85;;;19.10;99.90;;;;;;4952709;29;20173;-84
2023/09/19 08:59:12;;;;;;;17.55;12.20;;;19.00;99.90;;;;;;4953238;29;20219;-84
2023/09/19 09:01:41;;;;;;;21.65;11.85;;;19.00;99.90;;;;;;4952364;29;20556;-84
2023/09/19 09:04:12;;;;;;;18.25;12.18;;;19.00;99.90;;;;;;4935306;29;20195;-85
2023/09/19 09:06:43;;;;;;;18.40;11.48;;;19.10;99.90;;;;;;4952541;29;20177;-84
2023/09/19 09:09:11;;;;;;;17.52;12.05;;;19.10;99.90;;;;;;4952758;29;20188;-84
2023/09/19 09:11:39;;;;;;;20.45;11.85;;;19.30;99.90;;;;;;4952654;29;20216;-85
2023/09/19 09:14:07;;;;;;;16.65;11.40;;;19.60;99.90;;;;;;4952394;29;20181;-84
2023/09/19 09:16:35;;;;;;;14.48;10.80;;;19.70;99.90;;;;;;4952212;29;20261;-85
2023/09/19 09:19:04;;;;;;;16.52;11.23;;;19.50;99.90;;;;;;4951217;28;20554;-85
2023/09/19 09:21:36;;;;;;;16.42;11.65;;;19.70;99.90;;;;;;4952188;29;20272;-84
2023/09/19 09:24:26;;;;;;;14.20;10.70;;;19.90;99.90;;;;;;4952206;29;20641;-84
2023/09/19 09:26:54;;;;;;;16.52;11.77;;;20.10;99.90;;;;;;4952109;29;20889;-84
2023/09/19 09:29:47;;;;;;;15.75;10.73;;;20.10;99.90;;;;;;4952134;29;20187;-84
2023/09/19 09:32:24;;;;;;;17.40;10.88;;;20.20;99.90;;;;;;4952152;29;20185;-84
2023/09/19 09:34:56;;;;;;;17.95;11.13;;;20.30;99.90;;;;;;4952115;29;20544;-84
2023/09/19 09:37:30;;;;;;;18.48;10.82;;;20.40;99.90;;;;;;4934534;29;20196;-85
2023/09/19 09:40:19;;;;;;;16.13;11.05;;;20.40;99.90;;;;;;4951998;29;20288;-84
2023/09/19 09:42:47;;;;;;;18.75;11.60;;;20.40;99.90;;;;;;4951677;29;20200;-85
2023/09/19 09:45:36;;;;;;;24.80;12.15;;;20.50;99.90;;;;;;4951721;29;20185;-85
2023/09/19 09:48:14;;;;;;;17.40;10.50;;;20.70;99.90;;;;;;4951800;29;20173;-85
2023/09/19 09:53:28;;;;;;;15.27;10.30;;;20.60;99.90;;;;;;4951895;29;20252;-85
2023/09/19 09:56:00;;;;;;;16.35;10.75;;;20.50;99.90;;;;;;4951854;29;20200;-85
2023/09/19 09:58:37;;;;;;;13.13;9.85;;;20.70;99.90;;;;;;4934645;29;20187;-85
2023/09/19 10:01:14;;;;;;;14.77;9.57;;;20.90;99.90;;;;;;4934177;29;20573;-84
2023/09/19 10:03:47;;;;;;;16.98;9.48;;;20.90;99.90;;;;;;4934417;29;20200;-85
2023/09/19 10:06:25;;;;;;;13.32;9.70;;;21.00;99.90;;;;;;4951701;29;20173;-86
2023/09/19 10:11:37;;;;;;;13.60;9.43;;;21.20;99.90;;;;;;4951435;29;20587;-84
2023/09/19 10:14:06;;;;;;;14.73;9.93;;;21.10;99.90;;;;;;4934358;29;20255;-84
2023/09/19 10:16:37;;;;;;;15.82;9.75;;;21.10;99.90;;;;;;4951374;29;20191;-84
2023/09/19 10:19:08;;;;;;;14.57;9.90;;;21.10;99.90;;;;;;4934403;29;20164;-84
2023/09/19 10:21:36;;;;;;;17.88;9.70;;;21.10;99.90;;;;;;4951702;29;20176;-85
2023/09/19 10:24:08;;;;;;;14.27;9.88;;;21.10;99.90;;;;;;4951627;29;20208;-85
2023/09/19 10:26:37;;;;;;;14.43;9.52;;;21.30;99.90;;;;;;4951445;29;20169;-84
2023/09/19 10:29:07;;;;;;;15.45;9.27;;;21.40;99.90;;;;;;4951544;29;20271;-85
2023/09/19 10:31:40;;;;;;;13.68;8.93;;;21.50;99.90;;;;;;4933745;29;20195;-84
2023/09/19 10:34:09;;;;;;;11.75;8.52;;;21.10;99.90;;;;;;4951343;29;20181;-84
2023/09/19 10:36:40;;;;;;;13.05;8.70;;;21.20;99.90;;;;;;4951247;29;20235;-85
2023/09/19 10:39:12;;;;;;;10.75;8.10;;;21.10;99.90;;;;;;4934112;29;20173;-85
2023/09/19 10:41:40;;;;;;;14.48;8.90;;;21.30;99.90;;;;;;4950945;29;20613;-85
2023/09/19 10:44:09;;;;;;;14.75;8.73;;;21.40;99.90;;;;;;4934215;29;20231;-85
2023/09/19 10:46:38;;;;;;;13.85;8.93;;;21.30;99.90;;;;;;4950702;29;20239;-85
2023/09/19 10:49:06;;;;;;;14.00;9.27;;;21.30;99.90;;;;;;4950819;29;20216;-84
2023/09/19 10:51:41;;;;;;;13.55;8.38;;;21.20;99.90;;;;;;4950747;29;20196;-85
2023/09/19 10:54:15;;;;;;;12.60;8.68;;;21.20;99.90;;;;;;4933827;29;20172;-85
2023/09/19 10:56:48;;;;;;;12.95;8.82;;;21.40;99.90;;;;;;4950737;29;20203;-85
2023/09/19 10:59:18;;;;;;;13.43;8.13;;;21.40;99.90;;;;;;4933465;29;20204;-83
2023/09/19 11:01:57;;;;;;;12.07;8.80;;;21.40;99.90;;;;;;4964498;28;20693;-85
2023/09/19 11:04:35;;;;;;;12.60;8.50;;;21.30;99.90;;;;;;4953224;28;20658;-85
2023/09/19 11:07:11;;;;;;;12.85;9.10;;;21.30;99.90;;;;;;4970382;28;20630;-84
2023/09/19 11:09:57;;;;;;;14.30;9.10;;;21.20;99.90;;;;;;4970002;28;20168;-85
2023/09/19 11:12:31;;;;;;;14.82;9.32;;;21.20;99.90;;;;;;4970169;28;20187;-85
2023/09/19 11:14:59;;;;;;;15.35;9.60;;;21.10;99.90;;;;;;4970030;28;20178;-85
2023/09/19 11:17:32;;;;;;;11.45;8.15;;;21.20;99.90;;;;;;4969975;28;20190;-86
2023/09/19 11:22:48;;;;;;;13.35;7.85;;;21.40;99.90;;;;;;4969839;28;20203;-85
2023/09/19 11:25:33;;;;;;;12.38;8.68;;;21.40;99.90;;;;;;4969966;28;20540;-84
2023/09/19 11:30:46;;;;;;;11.82;7.60;;;21.50;99.90;;;;;;4970184;28;20184;-84
2023/09/19 11:33:50;;;;;;;12.35;7.25;;;21.60;99.90;;;;;;4969901;28;20184;-85
2023/09/19 11:36:15;;;;;;;11.88;8.10;;;21.90;99.90;;;;;;4967309;28;20211;-85
2023/09/19 11:38:52;;;;;;;13.23;7.28;;;21.60;99.90;;;;;;4969783;28;20176;-85
2023/09/19 11:41:20;;;;;;;17.13;8.77;;;21.80;99.90;;;;;;4969587;28;20232;-84
2023/09/19 11:43:50;;;;;;;12.82;7.32;;;21.90;99.90;;;;;;4972967;28;20262;-85
2023/09/19 11:46:22;;;;;;;11.98;6.85;;;22.10;99.90;;;;;;4973622;28;20258;-85
2023/09/19 11:48:50;;;;;;;8.95;6.57;;;21.90;99.90;;;;;;4973357;28;20212;-86
2023/09/19 11:51:26;;;;;;;10.43;7.00;;;22.20;99.90;;;;;;4973190;28;20212;-86
2023/09/19 11:53:59;;;;;;;13.38;7.30;;;22.20;99.90;;;;;;4973291;28;20179;-86
2023/09/19 11:56:28;;;;;;;10.73;7.75;;;22.00;99.90;;;;;;4973262;28;20180;-85
2023/09/19 11:58:57;;;;;;;12.32;7.13;;;22.10;99.90;;;;;;4973083;28;20212;-85
2023/09/19 12:01:34;;;;;;;9.55;7.18;;;21.90;99.90;;;;;;4972963;28;20187;-86
2023/09/19 12:04:04;;;;;;;10.65;7.60;;;21.90;99.90;;;;;;4972822;28;20611;-85
2023/09/19 12:06:32;;;;;;;9.77;6.88;;;21.80;99.90;;;;;;4972740;28;20195;-86
2023/09/19 12:09:00;;;;;;;9.75;7.05;;;21.70;99.90;;;;;;4955533;28;20180;-85
2023/09/19 12:11:35;;;;;;;12.52;7.13;;;21.60;99.90;;;;;;4972796;28;20192;-85
2023/09/19 12:14:03;;;;;;;10.38;7.05;;;21.70;99.90;;;;;;4972894;28;20585;-86
2023/09/19 12:16:33;;;;;;;12.57;7.53;;;21.60;99.90;;;;;;4955403;28;20195;-85
2023/09/19 12:19:24;;;;;;;13.55;7.93;;;21.50;99.90;;;;;;4972865;28;20184;-86
2023/09/19 12:22:06;;;;;;;12.32;7.50;;;21.60;99.90;;;;;;4955089;28;20666;-84
2023/09/19 12:24:36;;;;;;;10.45;7.35;;;21.50;99.90;;;;;;4972574;28;20224;-85
2023/09/19 12:27:06;;;;;;;16.88;7.43;;;21.70;99.90;;;;;;4972553;28;20172;-85
2023/09/19 12:29:54;;;;;;;9.98;7.47;;;21.70;99.90;;;;;;4972453;28;20658;-85
2023/09/19 12:32:40;;;;;;;13.27;7.70;;;21.60;99.90;;;;;;4972449;28;20686;-84
2023/09/19 12:35:11;;;;;;;10.75;7.28;;;21.70;99.90;;;;;;4972624;28;20168;-85
2023/09/19 12:37:52;;;;;;;11.05;7.65;;;21.70;99.90;;;;;;4972711;28;20243;-84
2023/09/19 12:40:28;;;;;;;10.45;7.18;;;21.60;99.90;;;;;;4972311;28;20176;-85
2023/09/19 12:43:02;;;;;;;9.38;7.30;;;21.60;99.90;;;;;;4972228;28;20203;-86
2023/09/19 12:45:31;;;;;;;12.93;7.95;;;21.50;99.90;;;;;;4972318;28;20180;-85
2023/09/19 12:48:31;;;;;;;13.10;7.82;;;21.50;99.90;;;;;;4954677;28;20210;-85
2023/09/19 12:51:09;;;;;;;10.15;6.95;;;21.40;99.90;;;;;;4972172;28;20172;-85
2023/09/19 12:53:41;;;;;;;12.82;7.65;;;21.40;99.90;;;;;;4971850;28;20175;-85
2023/09/19 12:56:11;;;;;;;10.38;7.72;;;21.40;99.90;;;;;;4954571;28;20192;-85
2023/09/19 12:59:00;;;;;;;12.65;7.60;;;21.50;99.90;;;;;;4972575;28;20188;-85
2023/09/19 13:01:29;;;;;;;11.50;7.32;;;21.40;99.90;;;;;;4954909;28;20172;-84